sensor_id;sensor_type;location;lat;lon;timestamp;pressure;altitude;pressure_sealevel;temperature;humidity
72110;BME280;59983;52.010;5.420;2022-09-13T00:00:13;101055.88;;;17.89;85.33
72110;BME280;59983;52.010;5.420;2022-09-13T00:02:40;101058.25;;;17.91;85.13
72110;BME280;59983;52.010;5.420;2022-09-13T00:05:06;101054.75;;;17.94;85.16
72110;BME280;59983;52.010;5.420;2022-09-13T00:07:33;101050.41;;;17.93;84.85
72110;BME280;59983;52.010;5.420;2022-09-13T00:09:59;101052.38;;;17.89;85.24
72110;BME280;59983;52.010;5.420;2022-09-13T00:12:26;101056.69;;;17.86;85.22
72110;BME280;59983;52.010;5.420;2022-09-13T00:14:52;101047.25;;;17.80;85.22
72110;BME280;59983;52.010;5.420;2022-09-13T00:17:18;101035.84;;;17.74;85.44
72110;BME280;59983;52.010;5.420;2022-09-13T00:19:45;101035.50;;;17.76;85.63
72110;BME280;59983;52.010;5.420;2022-09-13T00:22:12;101035.50;;;17.79;85.36
72110;BME280;59983;52.010;5.420;2022-09-13T00:24:38;101043.34;;;17.88;84.63
72110;BME280;59983;52.010;5.420;2022-09-13T00:27:05;101039.44;;;17.86;84.26
72110;BME280;59983;52.010;5.420;2022-09-13T00:29:31;101035.13;;;17.88;84.48
72110;BME280;59983;52.010;5.420;2022-09-13T00:31:58;101030.41;;;17.89;84.28
72110;BME280;59983;52.010;5.420;2022-09-13T00:34:24;101030.81;;;17.94;84.10
72110;BME280;59983;52.010;5.420;2022-09-13T00:36:51;101023.38;;;17.95;83.79
72110;BME280;59983;52.010;5.420;2022-09-13T00:39:17;101021.00;;;17.97;83.95
72110;BME280;59983;52.010;5.420;2022-09-13T00:41:44;101022.19;;;18.03;83.82
72110;BME280;59983;52.010;5.420;2022-09-13T00:44:49;101024.16;;;18.02;84.10
72110;BME280;59983;52.010;5.420;2022-09-13T00:47:43;101020.22;;;18.07;83.81
72110;BME280;59983;52.010;5.420;2022-09-13T00:50:24;101032.00;;;18.04;84.03
72110;BME280;59983;52.010;5.420;2022-09-13T00:52:55;101035.53;;;18.08;83.33
72110;BME280;59983;52.010;5.420;2022-09-13T00:55:27;101026.91;;;18.17;82.77
72110;BME280;59983;52.010;5.420;2022-09-13T00:58:00;101023.75;;;18.18;82.90
72110;BME280;59983;52.010;5.420;2022-09-13T01:00:27;101027.31;;;18.22;83.22
72110;BME280;59983;52.010;5.420;2022-09-13T01:02:59;101025.34;;;18.23;82.58
72110;BME280;59983;52.010;5.420;2022-09-13T01:05:31;101026.91;;;18.20;83.06
72110;BME280;59983;52.010;5.420;2022-09-13T01:08:00;101027.31;;;18.29;82.71
72110;BME280;59983;52.010;5.420;2022-09-13T01:10:27;101025.34;;;18.30;82.21
72110;BME280;59983;52.010;5.420;2022-09-13T01:13:03;101020.63;;;18.34;82.91
72110;BME280;59983;52.010;5.420;2022-09-13T01:15:38;101025.72;;;18.25;83.78
72110;BME280;59983;52.010;5.420;2022-09-13T01:18:04;101016.28;;;18.19;84.18
72110;BME280;59983;52.010;5.420;2022-09-13T01:20:47;101025.72;;;18.14;84.12
72110;BME280;59983;52.010;5.420;2022-09-13T01:26:26;101020.63;;;18.13;83.76
72110;BME280;59983;52.010;5.420;2022-09-13T01:31:34;101026.91;;;18.02;84.57
72110;BME280;59983;52.010;5.420;2022-09-13T01:37:12;101016.31;;;17.97;84.02
72110;BME280;59983;52.010;5.420;2022-09-13T01:40:09;101013.94;;;17.92;84.19
72110;BME280;59983;52.010;5.420;2022-09-13T01:43:02;101011.97;;;17.89;84.56
72110;BME280;59983;52.010;5.420;2022-09-13T01:45:57;101017.47;;;17.96;84.40
72110;BME280;59983;52.010;5.420;2022-09-13T01:51:36;101023.38;;;17.95;83.59
72110;BME280;59983;52.010;5.420;2022-09-13T01:56:38;101017.47;;;18.07;83.95
72110;BME280;59983;52.010;5.420;2022-09-13T01:59:14;101019.44;;;18.03;84.04
72110;BME280;59983;52.010;5.420;2022-09-13T02:01:54;101021.00;;;18.07;84.37
72110;BME280;59983;52.010;5.420;2022-09-13T02:04:24;101016.31;;;18.04;84.91
72110;BME280;59983;52.010;5.420;2022-09-13T02:07:06;101008.84;;;18.05;84.81
72110;BME280;59983;52.010;5.420;2022-09-13T02:09:38;101007.28;;;18.04;84.55
72110;BME280;59983;52.010;5.420;2022-09-13T02:12:15;101006.50;;;18.00;84.58
72110;BME280;59983;52.010;5.420;2022-09-13T02:14:50;101009.63;;;17.98;84.69
72110;BME280;59983;52.010;5.420;2022-09-13T02:17:22;101007.69;;;17.95;85.04
72110;BME280;59983;52.010;5.420;2022-09-13T02:19:57;101009.66;;;17.95;85.04
72110;BME280;59983;52.010;5.420;2022-09-13T02:22:32;101004.94;;;17.95;84.90
72110;BME280;59983;52.010;5.420;2022-09-13T02:25:07;101004.53;;;17.93;85.17
72110;BME280;59983;52.010;5.420;2022-09-13T02:27:36;101009.22;;;17.93;85.36
72110;BME280;59983;52.010;5.420;2022-09-13T02:30:07;101016.69;;;17.92;84.90
72110;BME280;59983;52.010;5.420;2022-09-13T02:32:44;101024.94;;;17.85;84.88
72110;BME280;59983;52.010;5.420;2022-09-13T02:35:29;101021.78;;;17.87;85.00
72110;BME280;59983;52.010;5.420;2022-09-13T02:38:10;101028.06;;;17.98;84.04
72110;BME280;59983;52.010;5.420;2022-09-13T02:40:42;101017.88;;;18.05;82.88
72110;BME280;59983;52.010;5.420;2022-09-13T02:43:16;101013.16;;;18.17;82.41
72110;BME280;59983;52.010;5.420;2022-09-13T02:45:54;101017.09;;;18.16;82.57
72110;BME280;59983;52.010;5.420;2022-09-13T02:48:50;101016.69;;;18.17;81.69
72110;BME280;59983;52.010;5.420;2022-09-13T02:51:32;101024.56;;;18.22;80.75
72110;BME280;59983;52.010;5.420;2022-09-13T02:54:13;101017.88;;;18.23;80.58
72110;BME280;59983;52.010;5.420;2022-09-13T02:56:54;101011.59;;;18.16;80.88
72110;BME280;59983;52.010;5.420;2022-09-13T02:59:24;101008.06;;;18.15;81.52
72110;BME280;59983;52.010;5.420;2022-09-13T03:02:11;101012.00;;;18.14;82.02
72110;BME280;59983;52.010;5.420;2022-09-13T03:04:39;101007.28;;;18.15;82.60
72110;BME280;59983;52.010;5.420;2022-09-13T03:07:10;101016.72;;;18.14;83.05
72110;BME280;59983;52.010;5.420;2022-09-13T03:09:42;101017.47;;;18.10;83.31
72110;BME280;59983;52.010;5.420;2022-09-13T03:15:21;101026.91;;;18.06;83.68
72110;BME280;59983;52.010;5.420;2022-09-13T03:24:09;101025.72;;;18.00;83.77
72110;BME280;59983;52.010;5.420;2022-09-13T03:26:55;101024.94;;;18.06;83.27
72110;BME280;59983;52.010;5.420;2022-09-13T03:32:25;101028.88;;;18.13;83.29
72110;BME280;59983;52.010;5.420;2022-09-13T03:35:24;101030.06;;;18.11;83.41
72110;BME280;59983;52.010;5.420;2022-09-13T03:43:24;101016.72;;;18.03;84.59
72110;BME280;59983;52.010;5.420;2022-09-13T03:45:55;101014.34;;;18.01;84.69
72110;BME280;59983;52.010;5.420;2022-09-13T03:48:24;101019.81;;;17.98;84.86
72110;BME280;59983;52.010;5.420;2022-09-13T03:50:53;101019.41;;;17.92;84.99
72110;BME280;59983;52.010;5.420;2022-09-13T03:53:22;101013.56;;;17.94;84.90
72110;BME280;59983;52.010;5.420;2022-09-13T03:55:50;101011.19;;;17.92;85.17
72110;BME280;59983;52.010;5.420;2022-09-13T03:58:19;101017.47;;;17.86;85.46
72110;BME280;59983;52.010;5.420;2022-09-13T04:00:46;101010.41;;;17.81;85.74
72110;BME280;59983;52.010;5.420;2022-09-13T04:03:13;101009.59;;;17.84;85.61
72110;BME280;59983;52.010;5.420;2022-09-13T04:05:40;101013.16;;;17.85;85.50
72110;BME280;59983;52.010;5.420;2022-09-13T04:08:07;101011.97;;;17.82;85.39
72110;BME280;59983;52.010;5.420;2022-09-13T04:10:34;101004.13;;;17.80;85.31
72110;BME280;59983;52.010;5.420;2022-09-13T04:13:01;100998.25;;;17.78;85.37
72110;BME280;59983;52.010;5.420;2022-09-13T04:15:28;100999.81;;;17.83;85.10
72110;BME280;59983;52.010;5.420;2022-09-13T04:17:56;101006.50;;;17.86;84.74
72110;BME280;59983;52.010;5.420;2022-09-13T04:20:23;101002.16;;;17.81;84.92
72110;BME280;59983;52.010;5.420;2022-09-13T04:22:54;101001.75;;;17.72;85.57
72110;BME280;59983;52.010;5.420;2022-09-13T04:25:22;101007.25;;;17.79;85.13
72110;BME280;59983;52.010;5.420;2022-09-13T04:27:56;101006.09;;;17.80;85.25
72110;BME280;59983;52.010;5.420;2022-09-13T04:30:25;101014.69;;;17.75;85.31
72110;BME280;59983;52.010;5.420;2022-09-13T04:32:52;101017.06;;;17.76;85.26
72110;BME280;59983;52.010;5.420;2022-09-13T04:35:21;101022.56;;;17.76;84.96
72110;BME280;59983;52.010;5.420;2022-09-13T04:37:48;101035.88;;;17.78;84.95
72110;BME280;59983;52.010;5.420;2022-09-13T04:40:14;101032.75;;;17.76;85.07
72110;BME280;59983;52.010;5.420;2022-09-13T04:42:43;101032.75;;;17.76;84.81
72110;BME280;59983;52.010;5.420;2022-09-13T04:45:09;101028.41;;;17.75;84.90
72110;BME280;59983;52.010;5.420;2022-09-13T04:47:36;101041.38;;;17.78;84.99
72110;BME280;59983;52.010;5.420;2022-09-13T04:50:03;101046.06;;;17.74;84.99
72110;BME280;59983;52.010;5.420;2022-09-13T04:52:29;101048.00;;;17.70;85.38
72110;BME280;59983;52.010;5.420;2022-09-13T04:54:55;101042.84;;;17.65;85.42
72110;BME280;59983;52.010;5.420;2022-09-13T04:57:26;101051.09;;;17.61;85.27
72110;BME280;59983;52.010;5.420;2022-09-13T04:59:53;101057.38;;;17.58;85.70
72110;BME280;59983;52.010;5.420;2022-09-13T05:02:19;101054.97;;;17.56;85.94
72110;BME280;59983;52.010;5.420;2022-09-13T05:04:46;101054.19;;;17.56;85.82
72110;BME280;59983;52.010;5.420;2022-09-13T05:07:12;101055.78;;;17.53;86.04
72110;BME280;59983;52.010;5.420;2022-09-13T05:09:39;101058.91;;;17.55;85.99
72110;BME280;59983;52.010;5.420;2022-09-13T05:12:06;101051.47;;;17.56;85.62
72110;BME280;59983;52.010;5.420;2022-09-13T05:14:32;101055.78;;;17.53;85.54
72110;BME280;59983;52.010;5.420;2022-09-13T05:17:00;101054.59;;;17.54;85.19
72110;BME280;59983;52.010;5.420;2022-09-13T05:19:26;101054.97;;;17.53;85.64
72110;BME280;59983;52.010;5.420;2022-09-13T05:21:53;101053.81;;;17.54;85.49
72110;BME280;59983;52.010;5.420;2022-09-13T05:24:19;101054.59;;;17.54;85.88
72110;BME280;59983;52.010;5.420;2022-09-13T05:26:46;101054.97;;;17.53;85.99
72110;BME280;59983;52.010;5.420;2022-09-13T05:29:13;101065.97;;;17.53;86.01
72110;BME280;59983;52.010;5.420;2022-09-13T05:31:40;101066.75;;;17.53;85.88
72110;BME280;59983;52.010;5.420;2022-09-13T05:34:11;101072.63;;;17.55;85.84
72110;BME280;59983;52.010;5.420;2022-09-13T05:36:38;101068.31;;;17.51;86.44
72110;BME280;59983;52.010;5.420;2022-09-13T05:39:06;101068.31;;;17.51;86.57
72110;BME280;59983;52.010;5.420;2022-09-13T05:41:53;101072.63;;;17.55;86.38
72110;BME280;59983;52.010;5.420;2022-09-13T05:44:20;101065.56;;;17.54;86.13
72110;BME280;59983;52.010;5.420;2022-09-13T05:46:47;101080.06;;;17.55;86.15
72110;BME280;59983;52.010;5.420;2022-09-13T05:49:14;101073.00;;;17.58;86.42
72110;BME280;59983;52.010;5.420;2022-09-13T05:51:40;101070.28;;;17.61;86.53
72110;BME280;59983;52.010;5.420;2022-09-13T05:54:07;101077.75;;;17.64;86.43
72110;BME280;59983;52.010;5.420;2022-09-13T05:56:35;101071.13;;;17.72;86.28
72110;BME280;59983;52.010;5.420;2022-09-13T05:59:02;101076.66;;;17.76;86.01
72110;BME280;59983;52.010;5.420;2022-09-13T06:01:29;101075.06;;;17.82;85.69
72110;BME280;59983;52.010;5.420;2022-09-13T06:03:57;101077.47;;;17.87;85.40
72110;BME280;59983;52.010;5.420;2022-09-13T06:06:24;101065.72;;;17.94;85.31
72110;BME280;59983;52.010;5.420;2022-09-13T06:08:54;101077.09;;;18.03;84.99
72110;BME280;59983;52.010;5.420;2022-09-13T06:11:22;101074.34;;;18.10;84.21
72110;BME280;59983;52.010;5.420;2022-09-13T06:13:49;101086.53;;;18.16;84.90
72110;BME280;59983;52.010;5.420;2022-09-13T06:16:16;101078.69;;;18.22;85.23
72110;BME280;59983;52.010;5.420;2022-09-13T06:18:43;101078.69;;;18.22;83.78
72110;BME280;59983;52.010;5.420;2022-09-13T06:21:12;101076.75;;;18.29;83.76
72110;BME280;59983;52.010;5.420;2022-09-13T06:23:47;101078.31;;;18.30;83.33
72110;BME280;59983;52.010;5.420;2022-09-13T06:26:15;101082.59;;;18.28;83.68
72110;BME280;59983;52.010;5.420;2022-09-13T06:28:42;101081.44;;;18.25;84.01
72110;BME280;59983;52.010;5.420;2022-09-13T06:31:14;101086.13;;;18.28;84.07
72110;BME280;59983;52.010;5.420;2022-09-13T06:33:42;101078.69;;;18.32;83.79
72110;BME280;59983;52.010;5.420;2022-09-13T06:36:11;101076.72;;;18.33;83.32
72110;BME280;59983;52.010;5.420;2022-09-13T06:38:40;101081.03;;;18.41;82.81
72110;BME280;59983;52.010;5.420;2022-09-13T06:41:09;101084.19;;;18.47;82.35
72110;BME280;59983;52.010;5.420;2022-09-13T06:43:37;101075.94;;;18.50;82.14
72110;BME280;59983;52.010;5.420;2022-09-13T06:46:22;101081.84;;;18.56;82.03
72110;BME280;59983;52.010;5.420;2022-09-13T06:48:51;101079.84;;;18.63;82.01
72110;BME280;59983;52.010;5.420;2022-09-13T06:51:20;101074.00;;;18.65;82.02
72110;BME280;59983;52.010;5.420;2022-09-13T06:53:48;101073.19;;;18.64;82.18
72110;BME280;59983;52.010;5.420;2022-09-13T06:56:26;101076.34;;;18.66;82.13
72110;BME280;59983;52.010;5.420;2022-09-13T06:58:57;101084.19;;;18.68;82.03
72110;BME280;59983;52.010;5.420;2022-09-13T07:01:30;101085.38;;;18.74;82.14
72110;BME280;59983;52.010;5.420;2022-09-13T07:03:59;101083.78;;;18.80;82.38
72110;BME280;59983;52.010;5.420;2022-09-13T07:06:28;101077.50;;;18.87;82.40
72110;BME280;59983;52.010;5.420;2022-09-13T07:08:58;101072.38;;;18.96;82.35
72110;BME280;59983;52.010;5.420;2022-09-13T07:11:28;101081.38;;;19.07;81.71
72110;BME280;59983;52.010;5.420;2022-09-13T07:13:56;101076.22;;;19.16;81.53
72110;BME280;59983;52.010;5.420;2022-09-13T07:16:28;101072.69;;;19.27;81.45
72110;BME280;59983;52.010;5.420;2022-09-13T07:18:56;101077.34;;;19.40;81.14
72110;BME280;59983;52.010;5.420;2022-09-13T07:21:24;101076.09;;;19.52;81.13
72110;BME280;59983;52.010;5.420;2022-09-13T07:23:51;101078.84;;;19.59;81.05
72110;BME280;59983;52.010;5.420;2022-09-13T07:26:19;101079.59;;;19.67;80.57
72110;BME280;59983;52.010;5.420;2022-09-13T07:28:47;101067.78;;;19.70;79.97
72110;BME280;59983;52.010;5.420;2022-09-13T07:31:19;101072.06;;;19.82;80.80
72110;BME280;59983;52.010;5.420;2022-09-13T07:33:51;101077.94;;;19.84;79.84
72110;BME280;59983;52.010;5.420;2022-09-13T07:36:18;101071.66;;;19.83;79.96
72110;BME280;59983;52.010;5.420;2022-09-13T07:38:45;101076.75;;;19.85;80.02
72110;BME280;59983;52.010;5.420;2022-09-13T07:41:13;101075.94;;;19.91;80.71
72110;BME280;59983;52.010;5.420;2022-09-13T07:43:40;101077.09;;;19.94;80.35
72110;BME280;59983;52.010;5.420;2022-09-13T07:46:09;101077.91;;;19.91;81.04
72110;BME280;59983;52.010;5.420;2022-09-13T07:48:37;101080.25;;;19.92;81.07
72110;BME280;59983;52.010;5.420;2022-09-13T07:51:10;101082.56;;;20.01;80.99
72110;BME280;59983;52.010;5.420;2022-09-13T07:53:38;101086.88;;;20.05;81.12
72110;BME280;59983;52.010;5.420;2022-09-13T07:56:13;101089.19;;;20.11;81.23
72110;BME280;59983;52.010;5.420;2022-09-13T07:58:42;101102.53;;;20.12;81.42
72110;BME280;59983;52.010;5.420;2022-09-13T08:01:15;101092.25;;;20.23;81.23
72110;BME280;59983;52.010;5.420;2022-09-13T08:03:44;101094.56;;;20.32;81.07
72110;BME280;59983;52.010;5.420;2022-09-13T08:06:15;101095.66;;;20.42;81.05
72110;BME280;59983;52.010;5.420;2022-09-13T08:08:42;101088.81;;;20.60;80.45
72110;BME280;59983;52.010;5.420;2022-09-13T08:11:15;101106.47;;;20.67;80.74
72110;BME280;59983;52.010;5.420;2022-09-13T08:13:44;101096.31;;;20.60;80.47
72110;BME280;59983;52.010;5.420;2022-09-13T08:16:11;101107.75;;;20.55;80.21
72110;BME280;59983;52.010;5.420;2022-09-13T08:18:43;101105.06;;;20.41;80.45
72110;BME280;59983;52.010;5.420;2022-09-13T08:21:10;101105.50;;;20.39;80.76
72110;BME280;59983;52.010;5.420;2022-09-13T08:23:37;101109.38;;;20.49;80.48
72110;BME280;59983;52.010;5.420;2022-09-13T08:26:03;101110.06;;;20.63;81.27
72110;BME280;59983;52.010;5.420;2022-09-13T08:28:31;101113.00;;;20.83;80.75
72110;BME280;59983;52.010;5.420;2022-09-13T08:31:05;101117.16;;;21.02;79.41
72110;BME280;59983;52.010;5.420;2022-09-13T08:33:32;101114.31;;;21.13;79.05
72110;BME280;59983;52.010;5.420;2022-09-13T08:35:59;101102.38;;;21.23;79.39
72110;BME280;59983;52.010;5.420;2022-09-13T08:38:26;101096.97;;;21.46;78.51
72110;BME280;59983;52.010;5.420;2022-09-13T08:41:00;101093.22;;;21.64;77.87
72110;BME280;59983;52.010;5.420;2022-09-13T08:46:25;101098.84;;;21.57;77.43
72110;BME280;59983;52.010;5.420;2022-09-13T08:48:57;101094.81;;;21.65;77.24
72110;BME280;59983;52.010;5.420;2022-09-13T08:54:01;101096.63;;;21.44;77.13
72110;BME280;59983;52.010;5.420;2022-09-13T08:56:37;101106.66;;;21.28;76.87
72110;BME280;59983;52.010;5.420;2022-09-13T08:59:33;101109.56;;;21.13;77.22
72110;BME280;59983;52.010;5.420;2022-09-13T09:02:30;101113.47;;;21.16;77.11
72110;BME280;59983;52.010;5.420;2022-09-13T09:05:17;101115.72;;;21.32;77.06
72110;BME280;59983;52.010;5.420;2022-09-13T09:08:12;101127.03;;;21.41;75.91
72110;BME280;59983;52.010;5.420;2022-09-13T09:10:45;101121.31;;;21.55;75.87
72110;BME280;59983;52.010;5.420;2022-09-13T09:13:20;101130.34;;;21.59;74.87
72110;BME280;59983;52.010;5.420;2022-09-13T09:15:52;101127.41;;;21.43;74.99
72110;BME280;59983;52.010;5.420;2022-09-13T09:18:28;101123.69;;;21.57;75.84
72110;BME280;59983;52.010;5.420;2022-09-13T09:20:58;101123.97;;;21.66;75.16
72110;BME280;59983;52.010;5.420;2022-09-13T09:26:17;101125.34;;;21.51;74.20
72110;BME280;59983;52.010;5.420;2022-09-13T09:29:00;101118.28;;;21.46;74.83
72110;BME280;59983;52.010;5.420;2022-09-13T09:32:02;101121.16;;;21.69;75.49
72110;BME280;59983;52.010;5.420;2022-09-13T09:37:39;101116.06;;;21.68;74.04
72110;BME280;59983;52.010;5.420;2022-09-13T09:40:12;101108.69;;;21.58;73.97
72110;BME280;59983;52.010;5.420;2022-09-13T09:42:45;101115.03;;;21.55;74.75
72110;BME280;59983;52.010;5.420;2022-09-13T09:45:30;101109.38;;;21.65;74.59
72110;BME280;59983;52.010;5.420;2022-09-13T09:48:06;101105.69;;;21.75;73.91
72110;BME280;59983;52.010;5.420;2022-09-13T09:50:38;101105.69;;;21.75;72.17
72110;BME280;59983;52.010;5.420;2022-09-13T09:53:18;101103.34;;;21.74;73.17
72110;BME280;59983;52.010;5.420;2022-09-13T09:55:53;101102.09;;;21.78;72.68
72110;BME280;59983;52.010;5.420;2022-09-13T10:01:03;101104.41;;;21.84;70.94
72110;BME280;59983;52.010;5.420;2022-09-13T10:03:37;101109.09;;;21.87;72.19
72110;BME280;59983;52.010;5.420;2022-09-13T10:06:09;101105.81;;;21.95;70.65
72110;BME280;59983;52.010;5.420;2022-09-13T10:08:39;101099.59;;;21.88;69.69
72110;BME280;59983;52.010;5.420;2022-09-13T10:11:07;101100.34;;;21.92;70.88
72110;BME280;59983;52.010;5.420;2022-09-13T10:13:35;101102.59;;;22.00;71.46
72110;BME280;59983;52.010;5.420;2022-09-13T10:16:24;101102.53;;;22.04;71.05
72110;BME280;59983;52.010;5.420;2022-09-13T10:18:51;101103.00;;;21.99;70.84
72110;BME280;59983;52.010;5.420;2022-09-13T10:23:45;101107.16;;;21.84;71.65
72110;BME280;59983;52.010;5.420;2022-09-13T10:26:20;101103.94;;;21.89;71.36
72110;BME280;59983;52.010;5.420;2022-09-13T10:29:06;101099.84;;;22.00;72.34
72110;BME280;59983;52.010;5.420;2022-09-13T10:31:36;101095.00;;;22.08;72.32
72110;BME280;59983;52.010;5.420;2022-09-13T10:37:15;101094.88;;;22.15;72.82
72110;BME280;59983;52.010;5.420;2022-09-13T10:39:55;101088.00;;;22.27;71.60
72110;BME280;59983;52.010;5.420;2022-09-13T10:42:25;101091.66;;;22.20;73.07
72110;BME280;59983;52.010;5.420;2022-09-13T10:45:01;101095.38;;;22.33;72.30
72110;BME280;59983;52.010;5.420;2022-09-13T10:47:49;101087.88;;;22.34;73.47
72110;BME280;59983;52.010;5.420;2022-09-13T10:52:54;101081.34;;;22.48;71.80
72110;BME280;59983;52.010;5.420;2022-09-13T10:57:49;101076.34;;;22.63;69.90
72110;BME280;59983;52.010;5.420;2022-09-13T11:00:29;101078.47;;;22.55;69.70
72110;BME280;59983;52.010;5.420;2022-09-13T11:08:32;101078.25;;;22.42;68.91
72110;BME280;59983;52.010;5.420;2022-09-13T11:11:26;101080.69;;;22.40;69.51
72110;BME280;59983;52.010;5.420;2022-09-13T11:14:16;101081.50;;;22.60;70.06
72110;BME280;59983;52.010;5.420;2022-09-13T11:22:19;101081.09;;;22.62;67.69
72110;BME280;59983;52.010;5.420;2022-09-13T11:25:20;101080.38;;;22.58;68.82
72110;BME280;59983;52.010;5.420;2022-09-13T11:30:38;101075.50;;;22.66;69.14
72110;BME280;59983;52.010;5.420;2022-09-13T11:33:26;101071.41;;;22.74;68.87
72110;BME280;59983;52.010;5.420;2022-09-13T11:39:31;101068.53;;;22.81;67.74
72110;BME280;59983;52.010;5.420;2022-09-13T11:47:55;101057.94;;;22.76;67.99
72110;BME280;59983;52.010;5.420;2022-09-13T11:56:03;101063.63;;;22.45;67.33
72110;BME280;59983;52.010;5.420;2022-09-13T11:58:43;101065.19;;;22.46;67.48
72110;BME280;59983;52.010;5.420;2022-09-13T12:01:16;101059.56;;;22.50;69.09
72110;BME280;59983;52.010;5.420;2022-09-13T12:04:06;101060.16;;;22.61;68.75
72110;BME280;59983;52.010;5.420;2022-09-13T12:06:39;101065.47;;;22.52;66.31
72110;BME280;59983;52.010;5.420;2022-09-13T12:09:19;101069.53;;;22.44;66.88
72110;BME280;59983;52.010;5.420;2022-09-13T12:12:10;101056.56;;;22.41;66.43
72110;BME280;59983;52.010;5.420;2022-09-13T12:14:44;101055.78;;;22.40;65.65
72110;BME280;59983;52.010;5.420;2022-09-13T12:17:28;101064.03;;;22.44;66.52
72110;BME280;59983;52.010;5.420;2022-09-13T12:19:58;101067.41;;;22.55;66.38
72110;BME280;59983;52.010;5.420;2022-09-13T12:22:28;101057.63;;;22.70;65.37
72110;BME280;59983;52.010;5.420;2022-09-13T12:25:02;101062.38;;;22.70;66.08
72110;BME280;59983;52.010;5.420;2022-09-13T12:27:42;101058.59;;;22.83;65.34
72110;BME280;59983;52.010;5.420;2022-09-13T12:30:18;101060.34;;;22.97;65.34
72110;BME280;59983;52.010;5.420;2022-09-13T12:32:46;101054.16;;;22.89;64.12
72110;BME280;59983;52.010;5.420;2022-09-13T12:35:31;101056.75;;;22.97;64.30
72110;BME280;59983;52.010;5.420;2022-09-13T12:38:18;101052.59;;;23.08;63.33
72110;BME280;59983;52.010;5.420;2022-09-13T12:41:03;101047.75;;;23.12;63.10
72110;BME280;59983;52.010;5.420;2022-09-13T12:46:31;101041.56;;;23.44;58.94
72110;BME280;59983;52.010;5.420;2022-09-13T12:49:35;101041.44;;;23.32;62.01
72110;BME280;59983;52.010;5.420;2022-09-13T12:52:19;101040.50;;;23.38;62.05
72110;BME280;59983;52.010;5.420;2022-09-13T12:55:27;101044.50;;;23.37;61.61
72110;BME280;59983;52.010;5.420;2022-09-13T12:58:38;101041.66;;;23.21;61.99
72110;BME280;59983;52.010;5.420;2022-09-13T13:01:24;101048.56;;;23.33;62.48
72110;BME280;59983;52.010;5.420;2022-09-13T13:06:35;101034.59;;;23.56;61.63
72110;BME280;59983;52.010;5.420;2022-09-13T13:09:22;101030.47;;;23.64;62.48
72110;BME280;59983;52.010;5.420;2022-09-13T13:11:54;101029.00;;;23.60;60.99
72110;BME280;59983;52.010;5.420;2022-09-13T13:14:28;101028.47;;;23.65;60.57
72110;BME280;59983;52.010;5.420;2022-09-13T13:20:00;101032.50;;;23.96;59.49
72110;BME280;59983;52.010;5.420;2022-09-13T13:25:36;101028.47;;;23.65;58.93
72110;BME280;59983;52.010;5.420;2022-09-13T13:31:09;101031.78;;;23.40;59.90
72110;BME280;59983;52.010;5.420;2022-09-13T13:33:47;101031.66;;;23.27;59.24
72110;BME280;59983;52.010;5.420;2022-09-13T13:36:26;101026.03;;;23.51;61.21
72110;BME280;59983;52.010;5.420;2022-09-13T13:38:57;101034.16;;;23.78;60.15
72110;BME280;59983;52.010;5.420;2022-09-13T13:46:43;101039.69;;;23.78;58.42
72110;BME280;59983;52.010;5.420;2022-09-13T13:57:25;101052.03;;;23.73;58.06
72110;BME280;59983;52.010;5.420;2022-09-13T14:00:03;101050.31;;;23.63;56.75
72110;BME280;59983;52.010;5.420;2022-09-13T14:08:31;101035.41;;;23.37;58.05
72110;BME280;59983;52.010;5.420;2022-09-13T14:11:12;101029.88;;;23.37;58.90
72110;BME280;59983;52.010;5.420;2022-09-13T14:19:28;101019.75;;;23.10;59.20
72110;BME280;59983;52.010;5.420;2022-09-13T14:22:13;101033.66;;;23.07;59.65
72110;BME280;59983;52.010;5.420;2022-09-13T14:24:51;101022.44;;;22.94;58.92
72110;BME280;59983;52.010;5.420;2022-09-13T14:27:23;101033.91;;;22.73;59.15
72110;BME280;59983;52.010;5.420;2022-09-13T14:29:54;101039.78;;;22.75;59.34
72110;BME280;59983;52.010;5.420;2022-09-13T14:32:24;101036.53;;;22.80;58.10
72110;BME280;59983;52.010;5.420;2022-09-13T14:35:03;101041.75;;;22.74;58.52
72110;BME280;59983;52.010;5.420;2022-09-13T14:37:34;101039.91;;;22.68;59.60
72110;BME280;59983;52.010;5.420;2022-09-13T14:42:38;101039.69;;;22.58;59.21
72110;BME280;59983;52.010;5.420;2022-09-13T14:45:05;101041.19;;;22.63;58.93
72110;BME280;59983;52.010;5.420;2022-09-13T14:47:48;101042.41;;;22.62;57.95
72110;BME280;59983;52.010;5.420;2022-09-13T14:50:23;101035.22;;;22.65;58.65
72110;BME280;59983;52.010;5.420;2022-09-13T14:52:56;101032.59;;;22.57;57.88
72110;BME280;59983;52.010;5.420;2022-09-13T14:55:35;101037.66;;;22.63;58.73
72110;BME280;59983;52.010;5.420;2022-09-13T14:58:06;101041.47;;;22.69;58.14
72110;BME280;59983;52.010;5.420;2022-09-13T15:00:45;101035.66;;;22.63;58.69
72110;BME280;59983;52.010;5.420;2022-09-13T15:03:15;101038.53;;;22.56;57.84
72110;BME280;59983;52.010;5.420;2022-09-13T15:05:50;101039.03;;;22.51;58.60
72110;BME280;59983;52.010;5.420;2022-09-13T15:11:06;101033.56;;;22.47;59.07
72110;BME280;59983;52.010;5.420;2022-09-13T15:13:38;101035.00;;;22.55;59.77
72110;BME280;59983;52.010;5.420;2022-09-13T15:16:30;101036.47;;;22.60;57.53
72110;BME280;59983;52.010;5.420;2022-09-13T15:19:35;101042.44;;;22.58;57.63
72110;BME280;59983;52.010;5.420;2022-09-13T15:22:15;101037.34;;;22.57;57.89
72110;BME280;59983;52.010;5.420;2022-09-13T15:25:01;101034.00;;;22.46;57.32
72110;BME280;59983;52.010;5.420;2022-09-13T15:27:42;101032.56;;;22.38;57.75
72110;BME280;59983;52.010;5.420;2022-09-13T15:30:31;101035.31;;;22.38;58.23
72110;BME280;59983;52.010;5.420;2022-09-13T15:35:41;101034.28;;;22.28;56.11